Rhinelander, Wisconsin
Current Conditions -  °F | °C
As of 8:53 AM on Thursday 30 Oct 2014 (Local Time) from KRHI Reporting Station
Overcast Overcast  
Wind Chill: 32°   Ceiling: 2000
Heat Index: 36°   Visibility: 10mi
Dew Point: 32°   Wind: 5mph
Humidity: 86%   Direction: 240°WSW
Pressure: 30.04"   Gusts: NA
Location:  45.64°N, 89.41°W
Report Text: KRHI 301353Z AUTO 24004KT 10SM OVC020 02/00 A3004 RMK AO2 SLP188 T00220000
Loading
Personal Weather Stations






























Interactive Weather Map
Tropical Storm Tracking
New forecast layout! Learn more

10-Day Weather Forecast

Advertisements
Track Severe Weather on mobile